createdAt,value
2023-09-29T00:00:21.079Z,8.90
2023-09-29T00:02:51.569Z,11.13
2023-09-29T00:05:20.387Z,10.00
2023-09-29T00:07:48.853Z,9.17
2023-09-29T00:10:18.082Z,6.53
2023-09-29T00:12:46.994Z,8.77
2023-09-29T00:15:18.217Z,11.70
2023-09-29T00:17:46.537Z,7.17
2023-09-29T00:20:19.837Z,6.60
2023-09-29T00:22:48.239Z,7.20
2023-09-29T00:25:16.601Z,8.53
2023-09-29T00:27:44.675Z,8.20
2023-09-29T00:30:14.114Z,8.77
2023-09-29T00:32:48.036Z,8.27
2023-09-29T00:35:25.570Z,7.47
2023-09-29T00:37:54.996Z,9.03
2023-09-29T00:40:23.330Z,9.97
2023-09-29T00:42:51.553Z,8.27
2023-09-29T00:45:21.573Z,7.67
2023-09-29T00:47:53.164Z,7.70
2023-09-29T00:50:22.060Z,7.73
2023-09-29T00:52:53.724Z,10.10
2023-09-29T00:55:29.281Z,6.47
2023-09-29T00:57:59.965Z,7.97
2023-09-29T01:00:33.592Z,10.00
2023-09-29T01:03:06.123Z,9.33
2023-09-29T01:05:39.259Z,9.53
2023-09-29T01:08:10.468Z,6.10
2023-09-29T01:10:38.774Z,7.03
2023-09-29T01:13:07.427Z,7.43
2023-09-29T01:15:36.211Z,9.03
2023-09-29T01:18:07.403Z,7.67
2023-09-29T01:20:35.839Z,5.33
2023-09-29T01:23:05.573Z,7.40
2023-09-29T01:25:35.551Z,8.30
2023-09-29T01:28:06.531Z,9.50
2023-09-29T01:30:34.765Z,9.50
2023-09-29T01:33:03.649Z,10.23
2023-09-29T01:35:31.819Z,9.80
2023-09-29T01:38:01.304Z,8.37
2023-09-29T01:40:29.937Z,6.23
2023-09-29T01:42:59.527Z,9.77
2023-09-29T01:45:28.708Z,13.07
2023-09-29T01:47:57.238Z,8.57
2023-09-29T01:50:25.967Z,10.27
2023-09-29T01:52:54.300Z,12.37
2023-09-29T01:55:24.370Z,8.50
2023-09-29T01:57:54.714Z,7.37
2023-09-29T02:00:26.501Z,8.17
2023-09-29T02:02:56.693Z,6.10
2023-09-29T02:05:25.742Z,9.50
2023-09-29T02:07:54.180Z,5.83
2023-09-29T02:10:23.794Z,9.73
2023-09-29T02:12:56.678Z,8.83
2023-09-29T02:15:27.048Z,5.87
2023-09-29T02:17:55.278Z,8.67
2023-09-29T02:20:30.232Z,8.40
2023-09-29T02:23:00.407Z,8.17
2023-09-29T02:25:29.523Z,6.30
2023-09-29T02:27:58.779Z,5.53
2023-09-29T02:30:29.208Z,8.40
2023-09-29T02:32:57.824Z,8.87
2023-09-29T02:35:26.261Z,6.53
2023-09-29T02:37:54.566Z,6.70
2023-09-29T02:40:23.650Z,9.60
2023-09-29T02:42:52.305Z,9.63
2023-09-29T02:45:20.363Z,8.23
2023-09-29T02:47:50.062Z,7.00
2023-09-29T02:50:19.647Z,6.97
2023-09-29T02:52:48.038Z,7.23
2023-09-29T02:55:17.841Z,6.23
2023-09-29T02:57:47.038Z,8.40
2023-09-29T03:00:19.965Z,5.87
2023-09-29T03:02:52.494Z,7.60
2023-09-29T03:05:22.256Z,7.73
2023-09-29T03:07:52.423Z,6.13
2023-09-29T03:10:24.442Z,6.53
2023-09-29T03:12:52.350Z,6.40
2023-09-29T03:15:22.219Z,7.47
2023-09-29T03:17:51.995Z,5.03
2023-09-29T03:20:20.105Z,8.50
2023-09-29T03:22:49.205Z,6.60
2023-09-29T03:25:19.663Z,5.70
2023-09-29T03:27:49.081Z,9.40
2023-09-29T03:30:17.668Z,8.57
2023-09-29T03:32:46.493Z,6.87
2023-09-29T03:35:15.898Z,6.40
2023-09-29T03:37:46.492Z,6.40
2023-09-29T03:40:15.780Z,8.77
2023-09-29T03:42:43.925Z,7.23
2023-09-29T03:45:13.729Z,6.40
2023-09-29T03:47:42.795Z,9.73
2023-09-29T03:50:14.008Z,5.23
2023-09-29T03:52:47.033Z,4.67
2023-09-29T03:55:15.906Z,8.33
2023-09-29T03:57:45.566Z,7.03
2023-09-29T04:00:15.385Z,7.90
2023-09-29T04:02:44.109Z,9.47
2023-09-29T04:05:12.354Z,5.83
2023-09-29T04:07:41.989Z,6.40
2023-09-29T04:10:13.696Z,7.30
2023-09-29T04:12:43.475Z,6.00
2023-09-29T04:15:12.271Z,4.77
2023-09-29T04:17:41.895Z,8.77
2023-09-29T04:20:11.201Z,8.73
2023-09-29T04:22:39.474Z,5.50
2023-09-29T04:25:12.363Z,7.93
2023-09-29T04:27:41.092Z,8.87
2023-09-29T04:30:11.416Z,4.47
2023-09-29T04:32:39.706Z,9.93
2023-09-29T04:35:08.257Z,8.10
2023-09-29T04:37:36.326Z,5.70
2023-09-29T04:40:05.436Z,9.53
2023-09-29T04:42:35.518Z,5.60
2023-09-29T04:45:04.541Z,7.13
2023-09-29T04:47:32.732Z,10.83
2023-09-29T04:50:01.000Z,5.30
2023-09-29T04:52:29.025Z,6.10
2023-09-29T04:54:56.975Z,10.10
2023-09-29T04:57:24.916Z,6.47
2023-09-29T04:59:54.267Z,6.40
2023-09-29T05:02:22.243Z,5.93
2023-09-29T05:04:51.313Z,5.37
2023-09-29T05:07:19.242Z,6.83
2023-09-29T05:09:47.671Z,6.67
2023-09-29T05:12:15.631Z,5.90
2023-09-29T05:14:43.689Z,9.87
2023-09-29T05:17:13.984Z,6.67
2023-09-29T05:19:41.992Z,7.90
2023-09-29T05:22:10.142Z,6.47
2023-09-29T05:24:38.077Z,7.77
2023-09-29T05:27:06.362Z,9.47
2023-09-29T05:29:35.210Z,4.83
2023-09-29T05:32:03.309Z,5.73
2023-09-29T05:34:32.692Z,9.43
2023-09-29T05:37:00.604Z,4.90
2023-09-29T05:39:28.502Z,8.53
2023-09-29T05:41:56.583Z,7.33
2023-09-29T05:44:24.542Z,6.27
2023-09-29T05:46:52.610Z,6.00
2023-09-29T05:49:20.757Z,8.80
2023-09-29T05:51:50.035Z,4.77
2023-09-29T05:54:18.004Z,7.80
2023-09-29T05:56:45.963Z,9.00
2023-09-29T05:59:13.895Z,8.70
2023-09-29T06:01:42.131Z,5.17
2023-09-29T06:04:10.241Z,7.00
2023-09-29T06:06:38.715Z,8.90
2023-09-29T06:09:08.040Z,6.27
2023-09-29T06:11:36.014Z,4.77
2023-09-29T06:14:04.012Z,7.87
2023-09-29T06:16:31.982Z,7.70
2023-09-29T06:18:59.950Z,6.00
2023-09-29T06:21:29.512Z,8.37
2023-09-29T06:23:57.736Z,8.70
2023-09-29T06:26:27.571Z,4.83
2023-09-29T06:28:55.545Z,5.80
2023-09-29T06:31:23.705Z,6.17
2023-09-29T06:33:51.855Z,7.53
2023-09-29T06:36:19.873Z,8.47
2023-09-29T06:38:47.804Z,7.73
2023-09-29T06:41:17.774Z,6.47
2023-09-29T06:43:48.575Z,6.17
2023-09-29T06:46:17.606Z,5.87
2023-09-29T06:48:45.844Z,6.17
2023-09-29T06:51:13.973Z,5.13
2023-09-29T06:53:41.965Z,3.80
2023-09-29T06:56:09.960Z,7.53
2023-09-29T06:58:38.148Z,4.80
2023-09-29T07:01:08.592Z,5.27
2023-09-29T07:03:36.981Z,6.00
2023-09-29T07:06:05.476Z,6.33
2023-09-29T07:08:33.962Z,5.97
2023-09-29T07:11:02.097Z,8.20
2023-09-29T07:13:30.157Z,6.40
2023-09-29T07:15:58.165Z,6.27
2023-09-29T07:18:27.649Z,4.27
2023-09-29T07:20:55.765Z,10.47
2023-09-29T07:23:24.054Z,6.77
2023-09-29T07:25:53.294Z,5.40
2023-09-29T07:28:22.193Z,7.60
2023-09-29T07:30:51.760Z,8.97
2023-09-29T07:33:20.559Z,7.70
2023-09-29T07:35:49.981Z,7.13
2023-09-29T07:38:19.118Z,4.87
2023-09-29T07:40:48.364Z,6.93
2023-09-29T07:43:16.368Z,5.27
2023-09-29T07:45:47.172Z,4.47
2023-09-29T07:48:17.760Z,7.03
2023-09-29T07:50:46.602Z,7.80
2023-09-29T07:53:16.079Z,6.77
2023-09-29T07:55:44.434Z,5.80
2023-09-29T07:58:12.426Z,5.83
2023-09-29T08:00:40.409Z,7.80
2023-09-29T08:03:08.403Z,5.43
2023-09-29T08:05:36.585Z,8.23
2023-09-29T08:08:04.980Z,7.47
2023-09-29T08:10:34.773Z,4.27
2023-09-29T08:13:02.664Z,4.53
2023-09-29T08:15:30.687Z,8.93
2023-09-29T08:17:58.691Z,7.90
2023-09-29T08:20:27.078Z,6.70
2023-09-29T08:22:55.058Z,5.73
2023-09-29T08:25:23.024Z,6.43
2023-09-29T08:27:52.602Z,5.20
2023-09-29T08:30:20.919Z,5.77
2023-09-29T08:32:56.735Z,6.67
2023-09-29T08:35:30.983Z,7.63
2023-09-29T08:38:00.065Z,7.73
2023-09-29T08:40:28.471Z,6.23
2023-09-29T08:42:58.420Z,8.27
2023-09-29T08:45:30.285Z,9.57
2023-09-29T08:48:01.498Z,5.40
2023-09-29T08:50:29.974Z,6.30
2023-09-29T08:53:01.718Z,4.47
2023-09-29T08:55:31.733Z,9.90
2023-09-29T08:58:02.515Z,8.83
2023-09-29T09:00:32.072Z,8.00
2023-09-29T09:03:02.344Z,8.47
2023-09-29T09:05:30.430Z,8.27
2023-09-29T09:08:02.471Z,6.60
2023-09-29T09:10:34.376Z,10.70
2023-09-29T09:13:04.225Z,6.53
2023-09-29T09:15:33.100Z,8.00
2023-09-29T09:18:01.313Z,6.07
2023-09-29T09:20:30.378Z,6.50
2023-09-29T09:22:59.904Z,5.73
2023-09-29T09:25:39.645Z,7.30
2023-09-29T09:28:16.864Z,3.73
2023-09-29T09:30:45.551Z,7.63
2023-09-29T09:33:22.237Z,4.40
2023-09-29T09:35:51.238Z,5.13
2023-09-29T09:38:19.597Z,5.37
2023-09-29T09:40:50.394Z,5.43
2023-09-29T09:43:20.752Z,5.90
2023-09-29T09:45:52.701Z,4.67
2023-09-29T09:48:23.817Z,7.10
2023-09-29T09:50:54.758Z,18.77
2023-09-29T09:53:27.040Z,9.60
2023-09-29T09:55:58.255Z,4.00
2023-09-29T09:58:28.123Z,7.87
2023-09-29T10:00:57.094Z,6.47
2023-09-29T10:03:29.117Z,4.37
2023-09-29T10:05:58.684Z,3.33
2023-09-29T10:08:29.109Z,4.57
2023-09-29T10:11:12.039Z,7.17
2023-09-29T10:13:43.372Z,7.23
2023-09-29T10:16:22.253Z,15.90
2023-09-29T10:18:57.309Z,9.33
2023-09-29T10:21:25.282Z,11.00
2023-09-29T10:23:53.563Z,7.33
2023-09-29T10:26:21.997Z,8.10
2023-09-29T10:29:02.500Z,5.77
2023-09-29T10:31:30.862Z,4.87
2023-09-29T10:33:59.214Z,11.47
2023-09-29T10:36:28.578Z,13.40
2023-09-29T10:38:59.099Z,4.63
2023-09-29T10:41:35.863Z,10.77
2023-09-29T10:44:07.153Z,6.90
2023-09-29T10:46:35.329Z,5.83
2023-09-29T10:49:03.385Z,4.03
2023-09-29T10:51:33.435Z,5.33
2023-09-29T10:54:08.205Z,6.80
2023-09-29T10:56:39.428Z,8.30
2023-09-29T10:59:10.236Z,9.70
2023-09-29T11:01:38.828Z,10.90
2023-09-29T11:04:10.917Z,11.17
2023-09-29T11:06:50.968Z,16.87
2023-09-29T11:09:22.142Z,12.57
2023-09-29T11:11:50.896Z,14.70
2023-09-29T11:14:20.582Z,15.17
2023-09-29T11:16:58.170Z,11.87
2023-09-29T11:19:31.673Z,14.07
2023-09-29T11:22:01.144Z,14.30
2023-09-29T11:24:40.712Z,17.93
2023-09-29T11:27:08.855Z,19.23
2023-09-29T11:29:39.056Z,17.43
2023-09-29T11:32:07.885Z,13.50
2023-09-29T11:34:35.991Z,16.40
2023-09-29T11:37:03.927Z,13.63
2023-09-29T11:39:31.944Z,16.17
2023-09-29T11:42:01.730Z,17.73
2023-09-29T11:44:29.678Z,18.47
2023-09-29T11:46:59.009Z,19.37
2023-09-29T11:49:27.300Z,20.27
2023-09-29T11:51:57.132Z,19.17
2023-09-29T11:54:25.347Z,19.27
2023-09-29T11:56:53.411Z,18.20
2023-09-29T11:59:22.075Z,17.20
2023-09-29T12:01:50.044Z,15.63
2023-09-29T12:04:19.890Z,16.70
2023-09-29T12:06:48.998Z,15.30
2023-09-29T12:09:19.147Z,19.67
2023-09-29T12:11:49.517Z,14.90
2023-09-29T12:14:17.681Z,18.23
2023-09-29T12:16:45.987Z,13.23
2023-09-29T12:19:14.161Z,11.57
2023-09-29T12:21:43.744Z,11.63
2023-09-29T12:24:12.020Z,11.63
2023-09-29T12:26:40.462Z,11.50
2023-09-29T12:29:08.439Z,13.90
2023-09-29T12:31:37.371Z,12.20
2023-09-29T12:34:06.532Z,12.53
2023-09-29T12:36:34.935Z,13.63
2023-09-29T12:39:05.313Z,13.77
2023-09-29T12:41:33.323Z,16.87
2023-09-29T12:44:01.546Z,13.90
2023-09-29T12:46:29.719Z,10.70
2023-09-29T12:48:57.641Z,11.93
2023-09-29T12:51:28.397Z,11.03
2023-09-29T12:53:57.824Z,11.80
2023-09-29T12:56:28.254Z,10.27
2023-09-29T12:58:56.985Z,11.83
2023-09-29T13:01:26.469Z,13.93
2023-09-29T13:03:55.079Z,7.47
2023-09-29T13:06:25.223Z,13.30
2023-09-29T13:08:53.235Z,9.57
2023-09-29T13:11:21.846Z,10.47
2023-09-29T13:13:51.116Z,12.77
2023-09-29T13:16:19.687Z,11.83
2023-09-29T13:18:50.063Z,9.13
2023-09-29T13:21:19.575Z,9.40
2023-09-29T13:23:48.129Z,10.30
2023-09-29T13:26:16.339Z,10.17
2023-09-29T13:28:44.306Z,7.97
2023-09-29T13:31:13.551Z,13.40
2023-09-29T13:33:41.536Z,8.67
2023-09-29T13:36:09.825Z,10.27
2023-09-29T13:38:37.859Z,9.10
2023-09-29T13:41:07.216Z,8.97
2023-09-29T13:43:35.304Z,7.47
2023-09-29T13:46:06.445Z,10.00
2023-09-29T13:48:36.021Z,9.10
2023-09-29T13:51:05.832Z,9.17
2023-09-29T13:53:33.977Z,10.00
2023-09-29T13:56:06.584Z,9.97
2023-09-29T13:58:34.601Z,8.90
2023-09-29T14:01:02.840Z,9.03
2023-09-29T14:03:31.451Z,9.10
2023-09-29T14:06:00.898Z,8.33
2023-09-29T14:08:28.858Z,4.97
2023-09-29T14:10:56.899Z,6.80
2023-09-29T14:13:25.417Z,7.17
2023-09-29T14:15:54.233Z,5.03
2023-09-29T14:18:22.253Z,4.67
2023-09-29T14:20:50.293Z,5.60
2023-09-29T14:23:20.219Z,4.17
2023-09-29T14:25:48.514Z,3.07
2023-09-29T14:28:16.615Z,3.53
2023-09-29T14:30:44.586Z,3.90
2023-09-29T14:33:12.916Z,2.80
2023-09-29T14:35:48.704Z,3.13
2023-09-29T14:38:19.754Z,6.60
2023-09-29T14:40:47.858Z,3.67
2023-09-29T14:43:16.405Z,4.13
2023-09-29T14:45:45.876Z,3.83
2023-09-29T14:48:14.280Z,3.47
2023-09-29T14:50:42.312Z,3.03
2023-09-29T14:53:11.378Z,5.17
2023-09-29T14:55:40.888Z,2.67
2023-09-29T14:58:09.212Z,6.43
2023-09-29T15:00:39.521Z,2.80
2023-09-29T15:03:07.626Z,5.37
2023-09-29T15:05:37.025Z,3.03
2023-09-29T15:08:05.799Z,4.70
2023-09-29T15:10:33.833Z,2.77
2023-09-29T15:13:03.373Z,2.93
2023-09-29T15:15:31.398Z,2.73
2023-09-29T15:18:00.813Z,8.40
2023-09-29T15:20:29.369Z,2.53
2023-09-29T15:22:57.372Z,4.60
2023-09-29T15:25:26.111Z,4.07
2023-09-29T15:27:54.420Z,5.50
2023-09-29T15:30:23.890Z,6.57
2023-09-29T15:32:53.494Z,6.23
2023-09-29T15:35:21.537Z,4.70
2023-09-29T15:37:49.638Z,3.67
2023-09-29T15:40:17.697Z,4.50
2023-09-29T15:42:46.150Z,5.83
2023-09-29T15:45:14.203Z,5.80
2023-09-29T15:47:43.519Z,4.57
2023-09-29T15:50:12.121Z,4.13
2023-09-29T15:52:42.050Z,2.90
2023-09-29T15:55:11.567Z,3.83
2023-09-29T15:57:39.644Z,2.30
2023-09-29T16:00:09.309Z,3.37
2023-09-29T16:02:37.540Z,3.67
2023-09-29T16:05:08.007Z,2.70
2023-09-29T16:07:36.061Z,8.93
2023-09-29T16:10:04.157Z,3.07
2023-09-29T16:12:32.153Z,3.13
2023-09-29T16:15:00.209Z,5.37
2023-09-29T16:17:29.955Z,3.80
2023-09-29T16:19:58.073Z,3.57
2023-09-29T16:22:28.868Z,5.23
2023-09-29T16:24:57.471Z,3.87
2023-09-29T16:27:25.986Z,2.93
2023-09-29T16:29:54.655Z,5.80
2023-09-29T16:32:31.675Z,5.37
2023-09-29T16:35:02.047Z,4.90
2023-09-29T16:37:32.390Z,3.47
2023-09-29T16:40:08.369Z,6.13
2023-09-29T16:42:43.322Z,4.57
2023-09-29T16:45:12.518Z,3.77
2023-09-29T16:47:40.805Z,3.50
2023-09-29T16:50:12.051Z,3.47
2023-09-29T16:52:41.628Z,5.60
2023-09-29T16:55:10.576Z,5.10
2023-09-29T16:57:38.477Z,3.87
2023-09-29T17:00:09.388Z,6.53
2023-09-29T17:02:37.482Z,5.77
2023-09-29T17:05:06.468Z,5.73
2023-09-29T17:07:35.446Z,7.43
2023-09-29T17:10:05.651Z,9.03
2023-09-29T17:12:33.785Z,6.47
2023-09-29T17:15:03.070Z,6.43
2023-09-29T17:17:32.053Z,5.27
2023-09-29T17:20:01.813Z,6.03
2023-09-29T17:22:30.882Z,9.40
2023-09-29T17:24:58.993Z,7.50
2023-09-29T17:27:28.420Z,7.53
2023-09-29T17:29:56.736Z,11.57
2023-09-29T17:32:24.793Z,5.87
2023-09-29T17:35:00.521Z,7.10
2023-09-29T17:37:30.028Z,5.43
2023-09-29T17:39:58.461Z,6.80
2023-09-29T17:42:27.769Z,6.37
2023-09-29T17:44:55.794Z,7.33
2023-09-29T17:47:23.837Z,9.27
2023-09-29T17:49:51.845Z,8.30
2023-09-29T17:52:19.960Z,5.97
2023-09-29T17:54:47.959Z,6.67
2023-09-29T17:57:19.368Z,7.33
2023-09-29T17:59:48.970Z,7.60
2023-09-29T18:02:16.873Z,6.03
2023-09-29T18:04:44.888Z,8.53
2023-09-29T18:07:12.919Z,9.57
2023-09-29T18:09:41.616Z,6.77
2023-09-29T18:12:10.635Z,8.70
2023-09-29T18:14:38.779Z,7.00
2023-09-29T18:17:08.776Z,7.30
2023-09-29T18:19:36.787Z,7.67
2023-09-29T18:22:04.858Z,6.43
2023-09-29T18:24:32.889Z,6.33
2023-09-29T18:27:01.218Z,13.90
2023-09-29T18:29:29.224Z,7.37
2023-09-29T18:31:57.276Z,8.83
2023-09-29T18:34:26.605Z,10.23
2023-09-29T18:36:55.314Z,7.40
2023-09-29T18:39:23.344Z,11.57
2023-09-29T18:41:51.325Z,6.87
2023-09-29T18:44:19.262Z,7.67
2023-09-29T18:46:47.233Z,8.90
2023-09-29T18:49:15.357Z,6.57
2023-09-29T18:51:45.221Z,7.33
2023-09-29T18:54:13.314Z,5.53
2023-09-29T18:56:42.109Z,9.13
2023-09-29T18:59:10.310Z,7.97
2023-09-29T19:01:38.381Z,8.17
2023-09-29T19:04:06.721Z,6.00
2023-09-29T19:06:34.824Z,9.73
2023-09-29T19:09:04.514Z,8.97
2023-09-29T19:11:32.446Z,9.80
2023-09-29T19:14:00.379Z,10.10
2023-09-29T19:16:29.397Z,6.43
2023-09-29T19:18:59.710Z,5.63
2023-09-29T19:21:28.181Z,7.10
2023-09-29T19:23:56.692Z,10.13
2023-09-29T19:26:29.755Z,7.87
2023-09-29T19:28:59.630Z,8.90
2023-09-29T19:31:28.383Z,9.10
2023-09-29T19:33:56.944Z,6.57
2023-09-29T19:36:28.771Z,12.67
2023-09-29T19:38:57.267Z,8.83
2023-09-29T19:41:28.471Z,7.50
2023-09-29T19:43:56.597Z,7.53
2023-09-29T19:46:24.617Z,6.83
2023-09-29T19:48:55.152Z,5.80
2023-09-29T19:51:23.743Z,8.50
2023-09-29T19:53:51.746Z,6.03
2023-09-29T19:56:21.307Z,7.17
2023-09-29T19:58:52.420Z,9.90
2023-09-29T20:01:21.768Z,7.07
2023-09-29T20:03:49.834Z,8.50
2023-09-29T20:06:17.873Z,8.13
2023-09-29T20:08:47.834Z,8.30
2023-09-29T20:11:18.646Z,6.93
2023-09-29T20:13:46.548Z,6.43
2023-09-29T20:16:17.295Z,8.73
2023-09-29T20:18:45.735Z,8.33
2023-09-29T20:21:14.224Z,22.30
2023-09-29T20:23:42.161Z,4.93
2023-09-29T20:26:10.701Z,10.30
2023-09-29T20:28:39.180Z,7.93
2023-09-29T20:31:07.456Z,6.90
2023-09-29T20:33:36.858Z,8.13
2023-09-29T20:36:06.393Z,8.47
2023-09-29T20:38:34.589Z,10.23
2023-09-29T20:41:02.542Z,8.10
2023-09-29T20:43:30.694Z,8.40
2023-09-29T20:45:58.605Z,7.87
2023-09-29T20:48:26.632Z,6.50
2023-09-29T20:50:56.022Z,8.10
2023-09-29T20:53:23.995Z,8.27
2023-09-29T20:55:51.906Z,11.10
2023-09-29T20:58:19.923Z,10.80
2023-09-29T21:00:48.173Z,6.90
2023-09-29T21:03:16.213Z,7.70
2023-09-29T21:05:44.259Z,10.50
2023-09-29T21:08:13.500Z,13.60
2023-09-29T21:10:41.950Z,11.67
2023-09-29T21:13:09.861Z,10.83
2023-09-29T21:15:38.054Z,7.87
2023-09-29T21:18:06.449Z,12.13
2023-09-29T21:20:35.036Z,9.83
2023-09-29T21:23:03.056Z,11.13
2023-09-29T21:25:32.473Z,8.57
2023-09-29T21:28:00.643Z,9.17
2023-09-29T21:30:29.809Z,9.97
2023-09-29T21:32:58.223Z,10.20
2023-09-29T21:35:26.449Z,10.63
2023-09-29T21:37:54.410Z,7.50
2023-09-29T21:40:22.550Z,10.23
2023-09-29T21:42:51.820Z,8.80
2023-09-29T21:45:19.854Z,8.43
2023-09-29T21:47:48.521Z,12.70
2023-09-29T21:50:16.578Z,12.90
2023-09-29T21:52:44.468Z,9.43
2023-09-29T21:55:12.519Z,14.23
2023-09-29T21:57:40.397Z,10.47
2023-09-29T22:00:18.241Z,8.03
2023-09-29T22:02:46.919Z,10.83
2023-09-29T22:05:16.840Z,10.03
2023-09-29T22:07:45.439Z,8.87
2023-09-29T22:10:14.566Z,7.70
2023-09-29T22:12:45.564Z,9.13
2023-09-29T22:15:17.077Z,11.57
2023-09-29T22:17:45.550Z,11.27
2023-09-29T22:20:14.278Z,11.23
2023-09-29T22:22:42.238Z,11.90
2023-09-29T22:25:10.989Z,12.37
2023-09-29T22:27:39.026Z,10.10
2023-09-29T22:30:08.216Z,10.00
2023-09-29T22:32:37.587Z,9.87
2023-09-29T22:35:07.130Z,9.57
2023-09-29T22:37:35.484Z,10.83
2023-09-29T22:40:04.512Z,12.83
2023-09-29T22:42:32.760Z,11.10
2023-09-29T22:45:05.922Z,12.23
2023-09-29T22:47:33.965Z,10.73
2023-09-29T22:50:04.775Z,10.60
2023-09-29T22:52:32.742Z,10.13
2023-09-29T22:55:01.080Z,16.33
2023-09-29T22:57:29.116Z,9.93
2023-09-29T22:59:57.239Z,11.73
2023-09-29T23:02:25.297Z,10.97
2023-09-29T23:04:53.361Z,9.13
2023-09-29T23:07:22.631Z,10.33
2023-09-29T23:09:51.868Z,12.20
2023-09-29T23:12:19.874Z,16.63
2023-09-29T23:14:47.855Z,10.23
2023-09-29T23:17:15.771Z,10.90
2023-09-29T23:19:44.170Z,11.23
2023-09-29T23:22:13.334Z,15.40
2023-09-29T23:24:42.731Z,11.97
2023-09-29T23:27:11.003Z,11.03
2023-09-29T23:29:39.643Z,10.97
2023-09-29T23:32:07.901Z,10.80
2023-09-29T23:34:38.658Z,10.00
2023-09-29T23:37:06.651Z,11.60
2023-09-29T23:39:34.906Z,12.40
2023-09-29T23:42:04.554Z,9.00
2023-09-29T23:44:34.128Z,8.37
2023-09-29T23:47:02.553Z,8.47
2023-09-29T23:49:30.806Z,11.07
2023-09-29T23:51:59.205Z,11.50
2023-09-29T23:54:28.482Z,11.53
2023-09-29T23:56:56.610Z,9.03
2023-09-29T23:59:25.854Z,11.37
